Time;durP1;ratioP1;P1;durP2;ratioP2;P2;SDS_P1;SDS_P2;PMS_P1;PMS_P2;Temp;Humidity;BMP_temperature;BMP_pressure;BME280_temperature;BME280_humidity;BME280_pressure;Samples;Min_cycle;Max_cycle;Signal;HPM_P1;HPM_P2
2021/06/14 00:01:47;;;;;;;8.68;4.00;;;22.90;61.30;;;;;;5126092;27;20449;-71
2021/06/14 00:04:13;;;;;;;8.48;4.03;;;22.90;60.90;;;;;;5122991;27;20422;-72
2021/06/14 00:06:40;;;;;;;6.93;3.90;;;22.90;61.40;;;;;;5125518;27;20425;-71
2021/06/14 00:09:07;;;;;;;8.32;4.90;;;22.80;61.90;;;;;;5124573;27;20810;-71
2021/06/14 00:11:34;;;;;;;7.85;4.43;;;22.80;62.20;;;;;;5125706;27;20496;-71
2021/06/14 00:14:03;;;;;;;11.52;4.63;;;22.80;61.70;;;;;;5123537;27;20418;-71
2021/06/14 00:16:31;;;;;;;10.57;4.87;;;22.70;61.90;;;;;;5123168;27;20430;-72
2021/06/14 00:18:58;;;;;;;10.05;4.15;;;22.70;62.80;;;;;;5124247;27;20914;-71
2021/06/14 00:21:27;;;;;;;9.93;4.18;;;22.70;63.40;;;;;;5125853;27;20422;-73
2021/06/14 00:23:54;;;;;;;11.10;4.65;;;22.70;63.90;;;;;;5123332;27;20506;-73
2021/06/14 00:26:21;;;;;;;7.15;4.20;;;22.60;65.20;;;;;;5123936;27;20447;-73
2021/06/14 00:28:48;;;;;;;9.77;4.30;;;22.60;66.00;;;;;;5124401;27;20422;-70
2021/06/14 00:31:16;;;;;;;9.52;4.43;;;22.60;66.60;;;;;;5124634;27;20423;-71
2021/06/14 00:33:43;;;;;;;10.70;4.70;;;22.50;67.40;;;;;;5122027;27;20926;-72
2021/06/14 00:36:11;;;;;;;10.88;4.93;;;22.50;67.80;;;;;;5124127;27;20910;-72
2021/06/14 00:38:39;;;;;;;9.30;4.68;;;22.50;68.30;;;;;;5123075;27;20410;-73
2021/06/14 00:41:07;;;;;;;10.77;4.90;;;22.40;67.20;;;;;;5125372;27;20437;-72
2021/06/14 00:43:36;;;;;;;7.82;4.10;;;22.40;66.10;;;;;;5123091;27;20422;-73
2021/06/14 00:46:03;;;;;;;9.23;4.32;;;22.40;64.70;;;;;;5127007;27;20410;-72
2021/06/14 00:48:32;;;;;;;8.38;4.57;;;22.30;63.00;;;;;;5124772;27;20423;-71
2021/06/14 00:51:01;;;;;;;10.00;4.28;;;22.30;63.00;;;;;;5125078;27;20907;-72
2021/06/14 00:53:30;;;;;;;9.75;4.80;;;22.20;62.80;;;;;;5121167;27;20429;-72
2021/06/14 00:55:59;;;;;;;10.43;4.90;;;22.20;63.00;;;;;;5124310;27;20430;-73
2021/06/14 00:58:26;;;;;;;11.05;5.00;;;22.10;63.30;;;;;;5126046;27;20419;-72
2021/06/14 01:00:53;;;;;;;12.35;5.53;;;22.10;63.60;;;;;;5123795;27;20918;-71
2021/06/14 01:03:23;;;;;;;10.45;5.32;;;22.10;63.80;;;;;;5126107;27;20497;-73
2021/06/14 01:05:55;;;;;;;13.15;5.90;;;22.10;64.30;;;;;;5123233;27;20426;-70
2021/06/14 01:08:21;;;;;;;11.63;5.72;;;22.00;64.40;;;;;;5123850;27;21195;-69
2021/06/14 01:10:50;;;;;;;16.20;6.00;;;22.00;64.50;;;;;;5124121;27;20421;-73
2021/06/14 01:13:33;;;;;;;12.23;6.07;;;22.00;64.30;;;;;;5125800;27;20422;-72
2021/06/14 01:16:06;;;;;;;14.00;6.13;;;21.90;64.60;;;;;;5122007;27;20426;-72
2021/06/14 01:18:42;;;;;;;13.50;6.35;;;22.00;64.90;;;;;;5123723;27;22093;-73
2021/06/14 01:21:15;;;;;;;16.00;6.80;;;21.90;65.20;;;;;;5123014;27;20467;-71
2021/06/14 01:24:21;;;;;;;16.77;6.95;;;21.90;65.30;;;;;;5124140;27;20421;-73
2021/06/14 01:27:01;;;;;;;17.20;7.45;;;21.90;65.70;;;;;;5119972;27;20775;-74
2021/06/14 01:29:36;;;;;;;16.77;7.50;;;21.80;66.20;;;;;;5122400;27;20947;-73
2021/06/14 01:32:07;;;;;;;17.80;7.40;;;21.80;66.70;;;;;;5138326;27;20425;-71
2021/06/14 01:34:37;;;;;;;15.90;7.50;;;21.80;67.10;;;;;;5122979;27;20402;-73
2021/06/14 01:37:06;;;;;;;18.05;7.20;;;21.70;67.20;;;;;;5121124;27;20422;-71
2021/06/14 01:39:39;;;;;;;14.67;6.93;;;21.70;67.20;;;;;;5124160;28;20418;-71
2021/06/14 01:42:10;;;;;;;16.45;7.07;;;21.70;67.30;;;;;;5121873;27;20490;-71
2021/06/14 01:44:40;;;;;;;12.30;7.00;;;21.70;67.40;;;;;;5122036;28;20735;-71
2021/06/14 01:47:10;;;;;;;13.48;7.10;;;21.60;67.50;;;;;;5122386;28;20475;-71
2021/06/14 01:49:38;;;;;;;13.48;6.53;;;21.60;67.70;;;;;;5119053;28;20448;-70
2021/06/14 01:52:17;;;;;;;14.40;6.85;;;21.60;67.90;;;;;;5121552;27;20951;-71
2021/06/14 01:54:46;;;;;;;11.65;6.35;;;21.60;68.00;;;;;;5124534;27;20425;-70
2021/06/14 01:57:20;;;;;;;12.37;6.60;;;21.60;68.20;;;;;;5123748;27;20432;-73
2021/06/14 01:59:59;;;;;;;13.32;6.65;;;21.60;68.40;;;;;;5122014;27;20504;-71
2021/06/14 02:02:43;;;;;;;13.15;6.60;;;21.60;68.50;;;;;;5122327;28;20419;-71
2021/06/14 02:05:20;;;;;;;14.95;6.55;;;21.50;68.60;;;;;;5117116;28;20410;-71
2021/06/14 02:07:48;;;;;;;11.18;6.10;;;21.50;68.50;;;;;;5123850;27;20422;-73
2021/06/14 02:10:15;;;;;;;11.60;6.40;;;21.50;68.40;;;;;;5123181;28;20425;-71
2021/06/14 02:12:45;;;;;;;11.03;6.17;;;21.40;68.40;;;;;;5121304;27;20414;-71
2021/06/14 02:15:18;;;;;;;9.00;5.80;;;21.40;68.40;;;;;;5123273;28;20473;-70
2021/06/14 02:17:47;;;;;;;10.27;6.22;;;21.40;68.40;;;;;;5122291;27;20779;-70
2021/06/14 02:20:16;;;;;;;12.60;5.95;;;21.40;68.50;;;;;;5122882;27;20418;-70
2021/06/14 02:22:43;;;;;;;15.90;6.30;;;21.40;68.60;;;;;;5121512;28;20497;-70
2021/06/14 02:25:12;;;;;;;12.10;6.22;;;21.40;68.60;;;;;;5123397;28;20471;-73
2021/06/14 02:27:40;;;;;;;11.55;6.28;;;21.40;68.60;;;;;;5121952;28;20782;-73
2021/06/14 02:30:16;;;;;;;9.85;5.65;;;21.40;69.40;;;;;;5122063;28;20407;-73
2021/06/14 02:32:44;;;;;;;11.65;6.47;;;21.40;68.80;;;;;;5151785;27;20525;-73
2021/06/14 02:35:13;;;;;;;11.15;6.38;;;21.40;68.80;;;;;;5124477;28;20420;-72
2021/06/14 02:37:45;;;;;;;12.60;6.77;;;21.30;68.80;;;;;;5124389;27;20431;-71
2021/06/14 02:40:14;;;;;;;11.82;6.30;;;21.30;68.90;;;;;;5128040;27;20406;-73
2021/06/14 02:42:44;;;;;;;11.05;6.07;;;21.30;68.90;;;;;;5125154;27;20431;-71
2021/06/14 02:45:15;;;;;;;11.32;6.00;;;21.30;69.00;;;;;;5129016;27;20430;-73
2021/06/14 02:47:45;;;;;;;13.13;6.22;;;21.30;69.10;;;;;;5126853;27;21481;-72
2021/06/14 02:50:15;;;;;;;11.50;6.00;;;21.30;69.20;;;;;;5128938;27;20890;-73
2021/06/14 02:52:43;;;;;;;11.35;6.05;;;21.30;69.20;;;;;;5126401;27;20420;-71
2021/06/14 02:55:16;;;;;;;9.75;5.75;;;21.30;69.20;;;;;;5127336;27;20422;-73
2021/06/14 02:57:50;;;;;;;12.75;6.00;;;21.20;69.30;;;;;;5125519;27;20426;-73
2021/06/14 03:00:19;;;;;;;11.07;6.20;;;21.20;69.40;;;;;;5126449;27;20433;-72
2021/06/14 03:02:48;;;;;;;10.77;6.20;;;21.20;69.40;;;;;;5125609;27;21556;-72
2021/06/14 03:05:16;;;;;;;11.35;6.35;;;21.20;69.50;;;;;;5129620;27;21180;-72
2021/06/14 03:07:45;;;;;;;10.68;6.10;;;21.20;69.30;;;;;;5125760;27;20759;-72
2021/06/14 03:10:14;;;;;;;12.65;6.13;;;21.10;69.30;;;;;;5126150;27;20426;-70
2021/06/14 03:12:46;;;;;;;10.45;6.28;;;21.20;69.60;;;;;;5124273;27;20231;-71
2021/06/14 03:15:13;;;;;;;11.80;6.20;;;20.80;70.50;;;;;;5128155;27;20211;-71
2021/06/14 03:17:44;;;;;;;9.20;6.22;;;20.50;71.30;;;;;;5126558;27;20197;-73
2021/06/14 03:20:14;;;;;;;13.63;6.57;;;20.30;72.00;;;;;;5128411;27;20192;-71
2021/06/14 03:22:41;;;;;;;12.70;7.03;;;20.10;72.40;;;;;;5125798;27;20433;-70
2021/06/14 03:25:09;;;;;;;14.32;6.97;;;20.40;72.40;;;;;;5125727;27;20424;-71
2021/06/14 03:27:37;;;;;;;10.27;6.70;;;20.60;71.80;;;;;;5126503;27;20471;-71
2021/06/14 03:30:06;;;;;;;11.85;6.75;;;20.80;71.70;;;;;;5125075;27;20433;-73
2021/06/14 03:32:35;;;;;;;12.07;6.80;;;20.80;71.50;;;;;;5123737;27;20915;-71
2021/06/14 03:35:04;;;;;;;12.27;7.05;;;20.80;71.30;;;;;;5124529;27;20547;-72
2021/06/14 03:37:34;;;;;;;11.18;6.45;;;20.80;71.50;;;;;;5123536;27;20426;-72
2021/06/14 03:40:01;;;;;;;13.10;6.73;;;20.80;71.30;;;;;;5126011;27;20426;-72
2021/06/14 03:42:30;;;;;;;13.40;7.03;;;20.80;71.60;;;;;;5125613;27;20418;-72
2021/06/14 03:44:57;;;;;;;12.60;7.05;;;20.80;71.90;;;;;;5125788;27;20468;-72
2021/06/14 03:47:24;;;;;;;14.43;7.00;;;20.80;71.90;;;;;;5122609;27;20904;-73
2021/06/14 03:49:51;;;;;;;12.77;6.82;;;20.80;72.30;;;;;;5123214;27;20457;-70
2021/06/14 03:52:19;;;;;;;13.20;7.15;;;20.80;72.70;;;;;;5122207;27;20475;-71
2021/06/14 03:54:46;;;;;;;13.85;7.50;;;20.80;72.70;;;;;;5126374;27;22482;-70
2021/06/14 03:57:13;;;;;;;13.40;7.47;;;20.80;72.50;;;;;;5122189;27;20418;-71
2021/06/14 03:59:40;;;;;;;11.23;7.67;;;20.80;72.40;;;;;;5125475;27;20446;-72
2021/06/14 04:02:07;;;;;;;11.13;7.30;;;20.70;72.20;;;;;;5122391;27;20767;-70
2021/06/14 04:04:46;;;;;;;13.10;7.47;;;20.80;72.70;;;;;;5124893;27;20419;-71
2021/06/14 04:07:35;;;;;;;13.23;7.30;;;20.80;73.10;;;;;;5124914;27;20426;-73
2021/06/14 04:10:03;;;;;;;16.27;7.70;;;20.80;73.00;;;;;;5124079;27;20426;-74
2021/06/14 04:12:31;;;;;;;15.30;7.75;;;20.70;72.90;;;;;;5120124;27;20776;-72
2021/06/14 04:14:58;;;;;;;15.68;7.90;;;20.70;73.00;;;;;;5122235;27;20410;-72
2021/06/14 04:17:27;;;;;;;15.25;8.10;;;20.70;73.10;;;;;;5119620;27;20425;-72
2021/06/14 04:19:54;;;;;;;16.58;8.38;;;20.80;73.30;;;;;;5123073;27;20505;-71
2021/06/14 04:22:21;;;;;;;13.63;8.23;;;20.80;73.40;;;;;;5120967;27;20426;-73
2021/06/14 04:24:50;;;;;;;14.27;8.35;;;20.80;73.50;;;;;;5123739;27;20779;-72
2021/06/14 04:27:17;;;;;;;16.33;8.48;;;20.80;73.60;;;;;;5122896;27;20486;-72
2021/06/14 04:29:44;;;;;;;14.95;8.55;;;20.80;73.80;;;;;;5125863;27;20422;-72
2021/06/14 04:32:11;;;;;;;16.13;8.50;;;20.80;74.10;;;;;;5124565;27;20423;-72
2021/06/14 04:34:38;;;;;;;14.70;8.95;;;20.80;74.30;;;;;;5125833;27;20425;-72
2021/06/14 04:37:06;;;;;;;16.10;8.73;;;20.80;74.40;;;;;;5123488;27;20432;-73
2021/06/14 04:39:33;;;;;;;20.95;9.57;;;20.80;74.60;;;;;;5122120;27;20921;-71
2021/06/14 04:42:01;;;;;;;17.83;9.50;;;20.70;74.40;;;;;;5121503;27;20426;-70
2021/06/14 04:44:28;;;;;;;22.73;9.70;;;20.70;74.70;;;;;;5121117;27;20418;-71
2021/06/14 04:46:55;;;;;;;15.63;8.95;;;20.70;74.50;;;;;;5124926;27;20423;-72
2021/06/14 04:49:22;;;;;;;17.45;9.27;;;20.70;74.30;;;;;;5127406;27;20229;-70
2021/06/14 04:51:49;;;;;;;24.77;9.50;;;20.40;75.10;;;;;;5126206;27;20553;-72
2021/06/14 04:54:15;;;;;;;16.83;9.05;;;20.10;75.80;;;;;;5126508;27;20226;-71
2021/06/14 04:56:43;;;;;;;20.42;9.63;;;19.90;76.40;;;;;;5125451;27;20240;-71
2021/06/14 04:59:11;;;;;;;14.88;9.10;;;19.80;77.00;;;;;;5124582;27;20200;-73
2021/06/14 05:01:37;;;;;;;20.17;8.75;;;19.70;77.40;;;;;;5119211;27;20730;-70
2021/06/14 05:04:05;;;;;;;21.67;9.98;;;19.60;77.80;;;;;;5125391;27;20204;-71
2021/06/14 05:06:32;;;;;;;18.90;9.43;;;19.60;78.10;;;;;;5125285;27;20200;-71
2021/06/14 05:08:59;;;;;;;19.15;9.48;;;19.60;78.60;;;;;;5127108;27;20279;-72
2021/06/14 05:11:25;;;;;;;18.67;9.75;;;19.50;79.00;;;;;;5128154;27;20204;-73
2021/06/14 05:13:53;;;;;;;21.90;9.80;;;19.50;79.50;;;;;;5125913;27;20648;-72
2021/06/14 05:16:21;;;;;;;20.13;9.68;;;19.50;79.80;;;;;;5124586;27;20206;-72
2021/06/14 05:18:47;;;;;;;18.30;10.35;;;19.50;80.20;;;;;;5124139;27;20566;-72
2021/06/14 05:21:14;;;;;;;20.70;9.77;;;19.40;80.40;;;;;;5125518;27;20192;-73
2021/06/14 05:23:41;;;;;;;23.38;10.85;;;19.40;80.70;;;;;;5125764;27;20562;-71
2021/06/14 05:26:08;;;;;;;21.80;10.15;;;19.40;80.90;;;;;;5126997;27;20204;-71
2021/06/14 05:28:35;;;;;;;27.27;9.82;;;19.40;80.90;;;;;;5123085;27;20200;-72
2021/06/14 05:31:02;;;;;;;28.40;10.90;;;19.40;80.90;;;;;;5123889;27;20574;-70
2021/06/14 05:33:30;;;;;;;20.67;10.05;;;19.40;81.00;;;;;;5129206;27;20201;-71
2021/06/14 05:35:57;;;;;;;25.10;9.98;;;19.40;81.10;;;;;;5129091;27;20281;-71
2021/06/14 05:38:24;;;;;;;17.70;9.80;;;19.40;81.00;;;;;;5129290;27;20220;-70
2021/06/14 05:40:51;;;;;;;23.77;9.60;;;19.50;80.90;;;;;;5127552;27;20648;-71
2021/06/14 05:43:18;;;;;;;26.80;10.05;;;19.50;80.60;;;;;;5129140;27;20576;-70
2021/06/14 05:45:45;;;;;;;24.48;9.68;;;19.50;80.40;;;;;;5129166;27;20612;-72
2021/06/14 05:48:12;;;;;;;24.00;9.32;;;19.60;81.00;;;;;;5129249;28;20200;-72
2021/06/14 05:50:40;;;;;;;17.67;9.38;;;19.60;80.10;;;;;;5127743;28;20249;-72
2021/06/14 05:53:07;;;;;;;19.10;8.68;;;19.60;80.10;;;;;;5128197;27;20922;-73
2021/06/14 05:55:34;;;;;;;16.88;7.88;;;20.10;76.80;;;;;;5128963;27;20235;-73
2021/06/14 05:58:01;;;;;;;17.23;7.50;;;20.00;77.10;;;;;;5129037;27;20657;-72
2021/06/14 06:00:28;;;;;;;19.13;7.60;;;19.90;77.00;;;;;;5127074;28;20200;-71
2021/06/14 06:02:55;;;;;;;16.63;7.72;;;19.90;76.50;;;;;;5128864;27;20207;-69
2021/06/14 06:05:22;;;;;;;17.33;7.72;;;19.90;76.20;;;;;;5128713;27;20687;-72
2021/06/14 06:07:50;;;;;;;18.67;7.63;;;19.90;75.80;;;;;;5129665;27;20212;-73
2021/06/14 06:10:17;;;;;;;17.17;7.75;;;19.90;75.40;;;;;;5127120;27;20212;-73
2021/06/14 06:12:44;;;;;;;16.25;7.55;;;19.90;74.90;;;;;;5130165;27;20206;-74
2021/06/14 06:15:14;;;;;;;19.50;7.90;;;19.90;74.70;;;;;;5133088;27;20897;-73
2021/06/14 06:17:41;;;;;;;17.13;7.38;;;19.90;74.40;;;;;;5132253;27;20220;-71
2021/06/14 06:20:10;;;;;;;13.73;7.40;;;20.00;74.40;;;;;;5131596;27;20287;-70
2021/06/14 06:22:37;;;;;;;19.75;7.63;;;20.00;74.10;;;;;;5132738;27;20196;-69
2021/06/14 06:25:07;;;;;;;21.67;8.13;;;20.00;73.90;;;;;;5132995;27;20667;-70
2021/06/14 06:27:34;;;;;;;14.95;7.50;;;20.00;73.90;;;;;;5131956;27;20621;-72
2021/06/14 06:30:01;;;;;;;17.40;8.18;;;20.10;74.00;;;;;;5131464;27;20565;-73
2021/06/14 06:32:28;;;;;;;14.95;8.00;;;20.10;73.80;;;;;;5132306;27;20218;-73
2021/06/14 06:34:55;;;;;;;14.85;7.45;;;20.20;73.80;;;;;;5132065;27;20538;-72
2021/06/14 06:37:22;;;;;;;23.63;8.32;;;20.20;73.50;;;;;;5133466;27;20196;-72
2021/06/14 06:39:48;;;;;;;21.13;8.88;;;20.20;73.50;;;;;;5130510;27;20216;-72
2021/06/14 06:42:17;;;;;;;15.48;7.50;;;20.30;73.40;;;;;;5132860;27;20185;-72
2021/06/14 06:44:44;;;;;;;23.67;8.00;;;20.30;73.40;;;;;;5130537;27;20200;-72
2021/06/14 06:47:10;;;;;;;18.77;7.50;;;20.30;73.30;;;;;;5131812;27;20196;-71
2021/06/14 06:49:37;;;;;;;18.77;7.55;;;20.40;74.20;;;;;;5132732;27;20589;-73
2021/06/14 06:52:05;;;;;;;20.70;7.97;;;20.40;73.40;;;;;;5131418;27;20225;-73
2021/06/14 06:54:32;;;;;;;16.45;7.30;;;20.40;73.40;;;;;;5130864;27;20207;-73
2021/06/14 06:56:59;;;;;;;22.25;7.68;;;20.50;73.50;;;;;;5130473;27;20208;-73
2021/06/14 06:59:27;;;;;;;19.20;7.38;;;20.50;73.40;;;;;;5131292;27;20270;-73
2021/06/14 07:01:54;;;;;;;15.07;6.72;;;20.50;73.40;;;;;;5130588;27;20555;-71
2021/06/14 07:04:21;;;;;;;25.48;6.45;;;20.60;73.30;;;;;;5130661;27;20567;-71
2021/06/14 07:06:48;;;;;;;13.73;6.07;;;20.70;73.00;;;;;;5132696;27;20200;-72
2021/06/14 07:09:15;;;;;;;12.43;5.85;;;20.70;72.50;;;;;;5132470;27;20188;-70
2021/06/14 07:11:42;;;;;;;17.55;5.82;;;20.80;71.80;;;;;;5131978;27;20208;-73
2021/06/14 07:14:09;;;;;;;16.90;5.88;;;20.80;71.50;;;;;;5131021;27;20211;-70
2021/06/14 07:16:40;;;;;;;11.85;5.15;;;20.90;71.10;;;;;;5130370;27;20208;-70
2021/06/14 07:19:07;;;;;;;12.75;5.30;;;20.90;70.60;;;;;;5131618;27;20268;-69
2021/06/14 07:21:34;;;;;;;14.68;5.28;;;21.00;69.50;;;;;;5131116;27;20648;-72
2021/06/14 07:24:01;;;;;;;16.58;5.22;;;21.00;68.50;;;;;;5131673;27;20199;-71
2021/06/14 07:26:29;;;;;;;13.27;5.53;;;21.10;68.10;;;;;;5132159;27;20202;-70
2021/06/14 07:28:55;;;;;;;11.65;5.28;;;21.10;67.90;;;;;;5126604;27;20268;-70
2021/06/14 07:31:23;;;;;;;13.95;5.85;;;21.20;67.60;;;;;;5129546;27;20220;-70
2021/06/14 07:33:52;;;;;;;14.98;5.25;;;21.20;67.40;;;;;;5132196;27;20563;-68
2021/06/14 07:36:19;;;;;;;16.95;5.53;;;21.30;67.20;;;;;;5129666;27;20199;-70
2021/06/14 07:38:46;;;;;;;15.20;5.35;;;21.40;67.20;;;;;;5128859;27;20201;-70
2021/06/14 07:41:13;;;;;;;18.38;5.70;;;21.40;67.40;;;;;;5131052;27;20304;-70
2021/06/14 07:43:40;;;;;;;16.42;5.70;;;21.40;67.70;;;;;;5130228;27;20208;-71
2021/06/14 07:46:07;;;;;;;13.07;5.25;;;21.40;67.10;;;;;;5130492;27;20197;-71
2021/06/14 07:48:35;;;;;;;15.45;6.05;;;21.50;66.90;;;;;;5129207;27;20225;-70
2021/06/14 07:51:07;;;;;;;14.88;5.72;;;21.50;66.50;;;;;;5128813;27;20629;-70
2021/06/14 07:53:34;;;;;;;18.38;6.07;;;21.60;66.30;;;;;;5130342;27;20235;-71
2021/06/14 07:56:02;;;;;;;13.55;6.20;;;21.60;66.00;;;;;;5129285;27;20919;-71
2021/06/14 07:58:30;;;;;;;16.00;6.63;;;21.70;66.10;;;;;;5130123;27;20192;-73
2021/06/14 08:00:57;;;;;;;16.83;6.30;;;21.80;66.30;;;;;;5129401;27;20207;-72
2021/06/14 08:03:24;;;;;;;14.57;5.63;;;21.80;66.30;;;;;;5129795;27;20205;-72
2021/06/14 08:05:51;;;;;;;15.88;6.13;;;21.80;66.40;;;;;;5131035;27;20253;-71
2021/06/14 08:08:20;;;;;;;13.10;5.70;;;21.90;66.40;;;;;;5129888;27;20200;-72
2021/06/14 08:10:48;;;;;;;13.43;5.65;;;21.90;66.00;;;;;;5131015;27;20212;-73
2021/06/14 08:13:16;;;;;;;21.05;5.88;;;22.00;65.50;;;;;;5130941;27;20576;-71
2021/06/14 08:15:43;;;;;;;22.75;5.43;;;22.00;64.60;;;;;;5131160;27;20204;-70
2021/06/14 08:21:08;;;;;;;11.57;4.68;;;22.10;63.50;;;;;;5127942;27;20192;-72
2021/06/14 08:26:22;;;;;;;13.13;4.85;;;22.20;62.60;;;;;;5121308;27;20625;-70
2021/06/14 08:28:49;;;;;;;14.38;5.00;;;22.30;61.90;;;;;;5125544;27;20212;-71
2021/06/14 08:31:16;;;;;;;19.52;6.28;;;22.40;61.10;;;;;;5126057;27;20220;-71
2021/06/14 08:33:43;;;;;;;17.77;5.10;;;22.40;60.70;;;;;;5125020;27;20206;-71
2021/06/14 08:36:11;;;;;;;11.65;5.22;;;22.50;60.60;;;;;;5125728;27;20204;-70
2021/06/14 08:38:39;;;;;;;13.75;5.03;;;22.50;60.50;;;;;;5123985;27;20193;-71
2021/06/14 08:41:06;;;;;;;14.63;4.53;;;22.60;60.50;;;;;;5122602;27;20203;-72
2021/06/14 08:43:33;;;;;;;13.25;4.90;;;22.60;60.60;;;;;;5125664;27;20458;-71
2021/06/14 08:46:00;;;;;;;17.33;4.80;;;23.00;56.30;;;;;;5126542;27;20196;-71
2021/06/14 08:48:28;;;;;;;13.48;4.85;;;23.00;57.00;;;;;;5127523;27;20786;-71
2021/06/14 08:50:55;;;;;;;10.93;4.53;;;23.00;57.20;;;;;;5125673;27;20234;-72
2021/06/14 08:53:22;;;;;;;15.05;4.30;;;23.00;57.30;;;;;;5126535;27;20211;-71
2021/06/14 08:55:52;;;;;;;12.15;4.55;;;23.00;57.30;;;;;;5125473;27;20227;-72
2021/06/14 08:58:19;;;;;;;10.23;4.50;;;23.00;56.70;;;;;;5124302;27;20199;-72
2021/06/14 09:00:46;;;;;;;12.20;4.20;;;23.10;56.10;;;;;;5121331;27;20605;-70
2021/06/14 09:03:13;;;;;;;16.98;5.22;;;23.10;56.10;;;;;;5126509;27;20192;-70
2021/06/14 09:05:40;;;;;;;9.18;4.57;;;23.10;56.00;;;;;;5126791;27;20212;-70
2021/06/14 09:08:08;;;;;;;13.38;5.30;;;23.10;56.10;;;;;;5125911;27;20207;-68
2021/06/14 09:10:37;;;;;;;15.05;4.55;;;23.10;55.90;;;;;;5126859;27;20243;-70
2021/06/14 09:13:16;;;;;;;13.48;4.80;;;23.20;55.60;;;;;;5122785;27;20228;-70
2021/06/14 09:15:46;;;;;;;10.25;4.53;;;23.20;55.30;;;;;;5124926;27;20211;-71
2021/06/14 09:18:21;;;;;;;12.32;4.53;;;23.20;55.00;;;;;;5121321;27;20205;-71
2021/06/14 09:21:01;;;;;;;14.63;4.80;;;23.30;54.80;;;;;;5126622;27;20606;-70
2021/06/14 09:23:46;;;;;;;11.27;4.50;;;23.30;54.50;;;;;;5125839;27;20192;-69
2021/06/14 09:26:32;;;;;;;11.93;4.70;;;23.30;54.30;;;;;;5125619;27;20201;-68
2021/06/14 09:29:02;;;;;;;8.73;4.18;;;23.40;54.30;;;;;;5123368;27;20192;-70
2021/06/14 09:31:38;;;;;;;18.70;4.65;;;23.50;54.00;;;;;;5123597;27;20278;-71
2021/06/14 09:34:05;;;;;;;9.38;4.57;;;23.50;53.30;;;;;;5123117;27;20727;-70
2021/06/14 09:36:32;;;;;;;12.82;4.15;;;23.50;53.00;;;;;;5124063;27;20211;-69
2021/06/14 09:39:07;;;;;;;10.00;3.78;;;23.60;52.90;;;;;;5122196;27;20201;-69
2021/06/14 09:41:40;;;;;;;15.75;4.38;;;23.60;52.50;;;;;;5126168;28;20709;-68
2021/06/14 09:44:08;;;;;;;23.55;4.43;;;23.60;52.30;;;;;;5120053;28;20189;-71
2021/06/14 09:46:36;;;;;;;15.50;4.57;;;23.70;52.10;;;;;;5124059;27;20645;-69
2021/06/14 09:49:04;;;;;;;8.18;3.97;;;23.70;51.90;;;;;;5128257;27;20662;-69
2021/06/14 09:51:33;;;;;;;12.18;4.18;;;23.70;51.50;;;;;;5126590;27;20235;-68
2021/06/14 09:54:02;;;;;;;13.55;3.92;;;23.80;51.50;;;;;;5129643;27;20664;-70
2021/06/14 09:56:32;;;;;;;8.25;4.22;;;23.80;51.50;;;;;;5128496;27;21381;-68
2021/06/14 09:59:00;;;;;;;13.52;4.25;;;23.90;51.30;;;;;;5127924;27;20200;-71
2021/06/14 10:01:31;;;;;;;12.52;3.85;;;23.90;51.10;;;;;;5126853;27;20197;-69
2021/06/14 10:03:59;;;;;;;8.38;3.50;;;23.90;50.90;;;;;;5124690;27;20196;-70
2021/06/14 10:06:31;;;;;;;10.68;4.20;;;23.90;50.80;;;;;;5127102;27;20205;-69
2021/06/14 10:08:59;;;;;;;11.70;3.95;;;24.00;50.90;;;;;;5128864;27;20207;-72
2021/06/14 10:11:33;;;;;;;6.88;3.95;;;24.00;51.10;;;;;;5125903;27;20780;-70
2021/06/14 10:14:10;;;;;;;7.13;4.00;;;24.10;51.30;;;;;;5123971;27;20203;-70
2021/06/14 10:16:39;;;;;;;8.90;3.83;;;24.10;51.00;;;;;;5126210;27;20750;-69
2021/06/14 10:19:08;;;;;;;9.20;3.25;;;24.10;50.80;;;;;;5125808;27;20265;-72
2021/06/14 10:21:37;;;;;;;10.07;3.80;;;24.20;51.00;;;;;;5127787;27;20676;-72
2021/06/14 10:24:06;;;;;;;11.15;4.05;;;24.20;50.80;;;;;;5127567;27;20207;-70
2021/06/14 10:26:35;;;;;;;12.48;4.30;;;24.20;50.50;;;;;;5128979;27;20196;-71
2021/06/14 10:29:04;;;;;;;12.63;4.07;;;24.20;50.30;;;;;;5122993;27;20562;-71
2021/06/14 10:31:31;;;;;;;15.05;4.63;;;24.30;50.40;;;;;;5120035;27;20213;-71
2021/06/14 10:33:59;;;;;;;10.30;3.92;;;24.30;50.40;;;;;;5123894;27;20196;-73
2021/06/14 10:36:28;;;;;;;10.82;4.18;;;24.40;50.40;;;;;;5125357;27;20200;-71
2021/06/14 10:38:56;;;;;;;7.50;3.83;;;24.40;50.30;;;;;;5121952;27;20204;-70
2021/06/14 10:41:24;;;;;;;15.60;3.95;;;24.50;50.30;;;;;;5122304;27;20188;-71
2021/06/14 10:43:53;;;;;;;8.02;3.88;;;24.50;49.80;;;;;;5123006;27;20213;-71
2021/06/14 10:46:22;;;;;;;10.75;3.70;;;24.50;49.60;;;;;;5121517;27;20204;-71
2021/06/14 10:48:55;;;;;;;11.15;4.28;;;24.60;49.50;;;;;;5153152;27;20203;-72
2021/06/14 10:51:24;;;;;;;14.48;4.40;;;24.70;49.80;;;;;;5120704;27;20240;-71
2021/06/14 10:53:51;;;;;;;9.45;3.90;;;24.70;48.80;;;;;;5119327;27;20208;-71
2021/06/14 10:56:20;;;;;;;9.23;3.60;;;24.80;48.70;;;;;;5125670;27;20232;-70
2021/06/14 10:58:58;;;;;;;8.57;4.15;;;24.80;48.40;;;;;;5124708;27;20199;-70
2021/06/14 11:01:33;;;;;;;9.60;3.88;;;24.80;48.30;;;;;;5125657;27;20200;-72
2021/06/14 11:04:01;;;;;;;11.77;4.60;;;24.90;48.50;;;;;;5129432;27;20698;-71
2021/06/14 11:06:31;;;;;;;9.50;4.13;;;24.90;48.20;;;;;;5126916;27;20241;-71
2021/06/14 11:09:00;;;;;;;7.57;3.75;;;25.00;48.00;;;;;;5122029;27;20211;-68
2021/06/14 11:11:27;;;;;;;13.30;4.03;;;25.00;47.90;;;;;;5126066;27;20219;-69
2021/06/14 11:13:54;;;;;;;9.38;3.72;;;25.00;47.90;;;;;;5124960;27;20200;-71
2021/06/14 11:16:23;;;;;;;7.95;3.70;;;25.10;47.80;;;;;;5128046;27;20281;-72
2021/06/14 11:19:01;;;;;;;8.05;3.30;;;25.20;47.70;;;;;;5126247;27;20241;-71
2021/06/14 11:21:29;;;;;;;9.70;3.90;;;25.20;47.60;;;;;;5123407;27;20571;-71
2021/06/14 11:24:06;;;;;;;8.95;3.67;;;25.30;47.70;;;;;;5127113;27;20661;-70
2021/06/14 11:26:33;;;;;;;8.68;3.70;;;25.20;47.80;;;;;;5125825;27;20196;-72
2021/06/14 11:29:11;;;;;;;13.10;3.60;;;25.30;47.80;;;;;;5126078;27;20210;-72
2021/06/14 11:31:39;;;;;;;6.75;3.50;;;25.30;47.50;;;;;;5122298;27;20266;-72
2021/06/14 11:34:17;;;;;;;10.63;3.67;;;25.30;47.70;;;;;;5126393;27;20680;-70
2021/06/14 11:36:55;;;;;;;11.77;3.40;;;25.30;47.60;;;;;;5121323;27;20554;-69
2021/06/14 11:39:23;;;;;;;8.35;3.67;;;25.40;47.60;;;;;;5122426;27;20670;-69
2021/06/14 11:41:52;;;;;;;8.80;3.72;;;25.40;48.00;;;;;;5122357;27;20201;-70
2021/06/14 11:44:25;;;;;;;12.82;3.95;;;25.30;47.30;;;;;;5123598;27;20198;-70
2021/06/14 11:46:53;;;;;;;14.60;4.53;;;25.40;47.20;;;;;;5122764;27;20205;-69
2021/06/14 11:49:29;;;;;;;9.38;3.40;;;25.40;47.20;;;;;;5123363;27;20297;-70
2021/06/14 11:51:57;;;;;;;8.52;3.90;;;25.40;47.20;;;;;;5154257;27;20212;-70
2021/06/14 11:54:25;;;;;;;13.00;3.80;;;25.40;47.20;;;;;;5122414;27;20600;-72
2021/06/14 11:56:58;;;;;;;7.10;3.53;;;25.40;47.20;;;;;;5122102;27;20240;-72
2021/06/14 11:59:31;;;;;;;9.75;3.60;;;25.50;47.30;;;;;;5125282;27;21144;-70
2021/06/14 12:01:58;;;;;;;11.10;3.65;;;25.60;47.40;;;;;;5126147;27;20594;-70
2021/06/14 12:04:28;;;;;;;10.60;3.80;;;25.60;47.30;;;;;;5126462;27;20209;-71
2021/06/14 12:07:02;;;;;;;13.15;3.40;;;25.70;47.20;;;;;;5127716;27;20193;-70
2021/06/14 12:09:30;;;;;;;8.30;3.63;;;25.80;47.00;;;;;;5125511;27;20205;-70
2021/06/14 12:12:03;;;;;;;7.25;3.53;;;25.90;47.10;;;;;;5125683;27;20574;-69
2021/06/14 12:14:32;;;;;;;11.35;3.65;;;25.90;47.00;;;;;;5126099;27;20208;-70
2021/06/14 12:17:01;;;;;;;9.77;3.58;;;26.00;47.10;;;;;;5127377;27;20216;-71
2021/06/14 12:19:32;;;;;;;8.45;3.72;;;26.10;47.10;;;;;;5127687;27;20192;-69
2021/06/14 12:22:04;;;;;;;9.40;3.60;;;26.10;46.90;;;;;;5127638;27;20275;-70
2021/06/14 12:24:33;;;;;;;11.20;3.95;;;26.20;47.00;;;;;;5126183;27;20203;-71
2021/06/14 12:27:01;;;;;;;7.13;3.83;;;26.30;47.00;;;;;;5121992;27;20211;-69
2021/06/14 12:29:28;;;;;;;10.35;3.95;;;26.40;46.80;;;;;;5126171;27;20589;-69
2021/06/14 12:32:05;;;;;;;11.10;4.07;;;26.50;46.50;;;;;;5123861;27;20230;-70
2021/06/14 12:34:32;;;;;;;8.60;3.70;;;26.50;46.50;;;;;;5124637;27;20192;-69
2021/06/14 12:37:05;;;;;;;7.53;3.20;;;26.60;46.40;;;;;;5124712;27;20205;-71
2021/06/14 12:39:33;;;;;;;10.73;3.88;;;26.70;45.80;;;;;;5124267;27;20200;-70
2021/06/14 12:42:00;;;;;;;13.45;4.07;;;26.80;45.80;;;;;;5125589;27;20200;-71
2021/06/14 12:44:27;;;;;;;9.00;3.70;;;26.90;45.50;;;;;;5128321;27;20204;-70
2021/06/14 12:46:54;;;;;;;8.27;3.75;;;27.00;45.30;;;;;;5120093;27;20208;-72
2021/06/14 12:49:23;;;;;;;9.60;3.63;;;27.10;45.20;;;;;;5129365;27;20209;-71
2021/06/14 12:51:50;;;;;;;12.55;4.50;;;27.20;45.10;;;;;;5130637;27;20216;-71
2021/06/14 12:54:19;;;;;;;9.10;3.72;;;27.40;45.10;;;;;;5130001;27;20201;-69